Accueil
METAR-TAF:

METAR-TAF

Aéroports :

Valley, Pays de Galles

latitude: 53-15N, longitude: 004-32W, altitude: 1 m

Observation

Le bulletin a été fait il y a 25 minutes, à 17:50 UTC
Vent 5 kt de ouest/sud-ouest
Température 9°C
Humidité 76%
Pression 1034 hPa
Visibilité 10 km ou plus
Nuages fragmentés à une hauteur de 4300 ft

METAR: EGOV 261750Z 24005KT 9999 BKN043 09/05 Q1034 BLU

Heure: 18:15 (18:15 UTC)

Prévision

Le bulletin a été fait il y a 4 heures et 38 minutes, à 13:37 UTC
Prévision valable du 26 à 15 UTC au 26 à 20 UTC
Vent 8 kt de ouest
Visibilité 10 km ou plus
Quelques nuages à une hauteur de 2000 ft
Nuages épars à une hauteur de 3500 ft

TAF: EGOV 261337Z 2615/2620 28008KT 9999 FEW020 SCT035

Observations et prévisions météorologiques de plus de 4000 aéroports (messages METAR et TAF).

Les stations disponibles sont représentées par des disques jaunes et rouges sur la carte.

Passer la souris dessus pour voir le nom de la station.

Cliquer dessus pour voir les observations et prévisions météorologiques.

Pour changer de carte: cliquez sur les boutons verts avec une croix noire pour zoomer, sur le bouton vert avec un tiret pour effectuer un zoom arrière, ou sur les flèches vertes pour les cartes adjacentes.


METAR-TAF: